Time;durP1;ratioP1;P1;durP2;ratioP2;P2;SDS_P1;SDS_P2;PMS_P1;PMS_P2;Temp;Humidity;BMP_temperature;BMP_pressure;BME280_temperature;BME280_humidity;BME280_pressure;Samples;Min_cycle;Max_cycle;Signal;HPM_P1;HPM_P2
2022/03/25 00:00:10;;;;;;;38.27;21.20;;;9.70;96.40;;;;;;5051144;28;20172;-75
2022/03/25 00:02:37;;;;;;;32.57;20.27;;;9.70;96.70;;;;;;5049913;28;20208;-74
2022/03/25 00:05:04;;;;;;;38.70;21.27;;;9.70;96.90;;;;;;5051379;28;20210;-74
2022/03/25 00:07:30;;;;;;;35.83;20.10;;;9.60;97.20;;;;;;5050770;28;20333;-74
2022/03/25 00:09:55;;;;;;;32.77;20.60;;;9.60;97.30;;;;;;5050882;28;20300;-75
2022/03/25 00:12:21;;;;;;;36.23;20.73;;;9.60;97.50;;;;;;5051814;28;20183;-72
2022/03/25 00:14:46;;;;;;;32.53;19.87;;;9.50;97.70;;;;;;5051866;28;20204;-76
2022/03/25 00:17:12;;;;;;;36.63;19.73;;;9.50;97.80;;;;;;5051890;28;20207;-76
2022/03/25 00:19:37;;;;;;;38.40;20.70;;;9.50;98.10;;;;;;5050828;28;20242;-75
2022/03/25 00:22:03;;;;;;;33.33;20.00;;;9.40;98.30;;;;;;5052411;28;20214;-75
2022/03/25 00:24:28;;;;;;;40.53;20.90;;;9.50;98.50;;;;;;5052368;28;20176;-74
2022/03/25 00:26:54;;;;;;;36.67;20.23;;;9.40;98.70;;;;;;5052882;28;20199;-76
2022/03/25 00:29:19;;;;;;;36.23;19.57;;;9.40;98.90;;;;;;5051468;28;20844;-75
2022/03/25 00:31:45;;;;;;;43.07;21.53;;;9.40;99.10;;;;;;5052383;28;20254;-75
2022/03/25 00:34:11;;;;;;;37.80;20.90;;;9.30;99.20;;;;;;5052110;28;20268;-75
2022/03/25 00:36:36;;;;;;;36.33;20.23;;;9.30;99.40;;;;;;5050683;28;20660;-76
2022/03/25 00:39:03;;;;;;;35.87;19.90;;;9.30;99.60;;;;;;5049594;28;20233;-76
2022/03/25 00:41:28;;;;;;;33.47;18.93;;;9.20;99.70;;;;;;5050659;28;20212;-75
2022/03/25 00:43:54;;;;;;;36.90;19.67;;;9.20;99.90;;;;;;5050439;28;20356;-76
2022/03/25 00:46:19;;;;;;;35.00;19.93;;;9.20;99.90;;;;;;5049403;28;20220;-76
2022/03/25 00:48:44;;;;;;;36.33;19.33;;;9.30;99.90;;;;;;5049769;28;20682;-76
2022/03/25 00:51:10;;;;;;;32.37;18.20;;;9.30;99.90;;;;;;5052849;28;20179;-76
2022/03/25 00:53:36;;;;;;;34.13;19.97;;;9.20;99.90;;;;;;5053079;28;20623;-76
2022/03/25 00:56:03;;;;;;;33.03;19.70;;;9.20;99.90;;;;;;5052979;28;20238;-76
2022/03/25 00:58:29;;;;;;;35.27;19.07;;;9.20;99.90;;;;;;5068915;28;20703;-76
2022/03/25 01:00:54;;;;;;;32.77;20.03;;;9.20;99.90;;;;;;5054329;28;20211;-76
2022/03/25 01:03:21;;;;;;;33.80;19.53;;;9.10;99.90;;;;;;5054903;28;20285;-75
2022/03/25 01:05:47;;;;;;;35.23;18.03;;;9.20;99.90;;;;;;5045984;28;20204;-77
2022/03/25 01:08:14;;;;;;;36.57;19.73;;;9.20;99.90;;;;;;5053613;28;20207;-75
2022/03/25 01:10:40;;;;;;;35.27;19.50;;;9.20;99.90;;;;;;5052739;28;20608;-76
2022/03/25 01:13:06;;;;;;;35.07;19.73;;;9.10;99.90;;;;;;5054155;28;20286;-75
2022/03/25 01:15:32;;;;;;;31.10;18.43;;;9.10;99.90;;;;;;5054079;28;20229;-76
2022/03/25 01:17:58;;;;;;;34.30;18.67;;;9.10;99.90;;;;;;5053807;28;20175;-75
2022/03/25 01:20:23;;;;;;;35.33;20.10;;;9.10;99.90;;;;;;5052646;28;20214;-76
2022/03/25 01:22:49;;;;;;;31.00;19.37;;;9.10;99.90;;;;;;5054132;28;20203;-76
2022/03/25 01:25:15;;;;;;;42.70;21.03;;;9.10;99.90;;;;;;5052574;28;20337;-76
2022/03/25 01:27:40;;;;;;;39.43;20.80;;;9.10;99.90;;;;;;5053219;28;20230;-75
2022/03/25 01:30:07;;;;;;;33.33;19.33;;;8.90;99.90;;;;;;5052623;28;20645;-76
2022/03/25 01:32:34;;;;;;;36.63;20.37;;;8.90;99.90;;;;;;5053706;28;20214;-77
2022/03/25 01:34:59;;;;;;;34.00;20.60;;;8.90;99.90;;;;;;5053909;28;20954;-76
2022/03/25 01:37:25;;;;;;;39.07;20.30;;;8.80;99.90;;;;;;5052142;28;20215;-76
2022/03/25 01:39:51;;;;;;;35.73;20.23;;;8.70;99.90;;;;;;5053051;28;20199;-75
2022/03/25 01:42:28;;;;;;;34.57;20.10;;;8.70;99.90;;;;;;5054083;28;20175;-76
2022/03/25 01:44:53;;;;;;;34.17;20.67;;;8.60;99.90;;;;;;5053813;28;20215;-76
2022/03/25 01:47:30;;;;;;;33.93;20.07;;;8.60;99.90;;;;;;5053482;28;20210;-75
2022/03/25 01:49:57;;;;;;;33.73;19.10;;;8.60;99.90;;;;;;5052956;28;20219;-76
2022/03/25 01:52:22;;;;;;;37.13;20.53;;;8.60;99.90;;;;;;5053536;28;20639;-77
2022/03/25 01:54:48;;;;;;;35.37;20.37;;;8.60;99.90;;;;;;5053302;28;20220;-77
2022/03/25 01:57:13;;;;;;;32.40;20.17;;;8.60;99.90;;;;;;5052812;28;20192;-76
2022/03/25 01:59:39;;;;;;;32.83;19.33;;;8.60;99.90;;;;;;5052749;28;20458;-75
2022/03/25 02:02:06;;;;;;;30.80;19.33;;;8.60;99.90;;;;;;5052653;28;20328;-76
2022/03/25 02:04:32;;;;;;;35.20;20.10;;;8.60;99.90;;;;;;5053254;28;20203;-76
2022/03/25 02:06:58;;;;;;;36.70;19.93;;;8.60;99.90;;;;;;5066357;23;20226;-76
2022/03/25 02:09:26;;;;;;;33.70;18.67;;;8.60;99.90;;;;;;5064720;28;20219;-77
2022/03/25 02:11:51;;;;;;;35.53;19.60;;;8.50;99.90;;;;;;5072052;28;20225;-77
2022/03/25 02:14:17;;;;;;;38.50;20.20;;;8.60;99.90;;;;;;5073460;28;20544;-76
2022/03/25 02:16:46;;;;;;;33.37;19.30;;;8.60;99.90;;;;;;5072777;28;20707;-77
2022/03/25 02:19:18;;;;;;;32.77;19.00;;;8.60;99.90;;;;;;5071116;28;20211;-77
2022/03/25 02:21:44;;;;;;;33.93;19.60;;;8.60;99.90;;;;;;5073380;28;20175;-76
2022/03/25 02:24:11;;;;;;;34.47;19.07;;;8.50;99.90;;;;;;5073429;28;20254;-76
2022/03/25 02:26:37;;;;;;;34.97;19.67;;;8.60;99.90;;;;;;5059196;28;20204;-76
2022/03/25 02:29:04;;;;;;;34.27;18.63;;;8.50;99.90;;;;;;5052703;28;20298;-75
2022/03/25 02:31:30;;;;;;;32.53;18.30;;;8.40;99.90;;;;;;5052831;28;20203;-75
2022/03/25 02:34:03;;;;;;;36.33;19.77;;;8.40;99.90;;;;;;5052488;28;20214;-76
2022/03/25 02:36:34;;;;;;;34.83;19.10;;;8.40;99.90;;;;;;5052476;28;20163;-76
2022/03/25 02:39:00;;;;;;;32.87;18.43;;;8.40;99.90;;;;;;5052446;28;20234;-76
2022/03/25 02:41:25;;;;;;;29.23;18.60;;;8.30;99.90;;;;;;5052789;28;20684;-75
2022/03/25 02:43:52;;;;;;;37.10;19.97;;;8.30;99.90;;;;;;5052734;28;20208;-75
2022/03/25 02:46:17;;;;;;;34.60;18.33;;;8.30;99.90;;;;;;5051009;28;20264;-75
2022/03/25 02:48:42;;;;;;;34.57;18.23;;;8.20;99.90;;;;;;5050171;28;20302;-76
2022/03/25 02:51:08;;;;;;;35.80;18.77;;;8.20;99.90;;;;;;5052763;28;20186;-76
2022/03/25 02:53:33;;;;;;;32.43;19.53;;;8.20;99.90;;;;;;5050823;28;20557;-76
2022/03/25 02:55:59;;;;;;;30.77;18.70;;;8.20;99.90;;;;;;5052496;28;20728;-76
2022/03/25 02:58:25;;;;;;;37.27;20.53;;;8.30;99.90;;;;;;5051184;28;20257;-76
2022/03/25 03:00:50;;;;;;;34.23;20.07;;;8.20;99.90;;;;;;5056090;28;20226;-76
2022/03/25 03:03:16;;;;;;;38.00;20.60;;;8.20;99.90;;;;;;5072512;28;20182;-76
2022/03/25 03:05:42;;;;;;;34.27;19.30;;;8.20;99.90;;;;;;5071876;28;20210;-76
2022/03/25 03:08:09;;;;;;;39.80;21.07;;;8.20;99.90;;;;;;5069582;28;20756;-76
2022/03/25 03:10:34;;;;;;;34.40;20.27;;;8.20;99.90;;;;;;5071945;28;20260;-76
2022/03/25 03:13:00;;;;;;;33.73;20.77;;;8.20;99.90;;;;;;5071739;28;20211;-76
2022/03/25 03:15:25;;;;;;;35.13;19.70;;;8.10;99.90;;;;;;5070257;28;20546;-76
2022/03/25 03:17:51;;;;;;;33.90;19.93;;;8.10;99.90;;;;;;5070454;28;20197;-75
2022/03/25 03:20:19;;;;;;;32.10;20.20;;;8.10;99.90;;;;;;5071350;28;20199;-76
2022/03/25 03:22:44;;;;;;;34.97;19.73;;;8.10;99.90;;;;;;5071489;28;20340;-76
2022/03/25 03:25:10;;;;;;;38.13;20.93;;;8.00;99.90;;;;;;5066704;28;20302;-76
2022/03/25 03:27:37;;;;;;;34.80;19.93;;;8.00;99.90;;;;;;5043053;28;20740;-76
2022/03/25 03:30:08;;;;;;;33.23;19.87;;;8.00;99.90;;;;;;5059512;28;20208;-76
2022/03/25 03:32:35;;;;;;;32.63;20.83;;;8.00;99.90;;;;;;5053046;28;20204;-75
2022/03/25 03:35:01;;;;;;;33.17;19.23;;;8.00;99.90;;;;;;5052180;28;20240;-76
2022/03/25 03:37:27;;;;;;;33.20;20.50;;;7.90;99.90;;;;;;5052523;28;20588;-76
2022/03/25 03:39:53;;;;;;;34.03;19.53;;;8.00;99.90;;;;;;5050763;28;20211;-76
2022/03/25 03:42:19;;;;;;;35.27;20.30;;;8.00;99.90;;;;;;5051895;28;20921;-76
2022/03/25 03:44:44;;;;;;;34.87;19.27;;;7.90;99.90;;;;;;5051431;28;20574;-76
2022/03/25 03:47:10;;;;;;;32.93;19.80;;;7.90;99.90;;;;;;5049875;28;20594;-77
2022/03/25 03:49:37;;;;;;;28.67;18.73;;;7.80;99.90;;;;;;5050221;28;20219;-76
2022/03/25 03:52:04;;;;;;;37.67;20.47;;;7.80;99.90;;;;;;5051393;28;20289;-76
2022/03/25 03:54:33;;;;;;;33.93;19.10;;;7.70;99.90;;;;;;5049689;28;20183;-76
2022/03/25 03:56:59;;;;;;;37.70;20.43;;;7.60;99.90;;;;;;5051586;28;20206;-76
2022/03/25 03:59:24;;;;;;;45.43;24.23;;;7.70;99.90;;;;;;5050147;28;20203;-75
2022/03/25 04:01:50;;;;;;;44.83;24.53;;;7.80;99.90;;;;;;5050883;28;20227;-77
2022/03/25 04:04:16;;;;;;;35.10;21.20;;;7.70;99.90;;;;;;5050025;28;20567;-77
2022/03/25 04:06:41;;;;;;;39.07;21.03;;;7.80;99.90;;;;;;5059042;28;20172;-77
2022/03/25 04:09:07;;;;;;;39.40;20.40;;;7.70;99.90;;;;;;5050744;28;20203;-76
2022/03/25 04:11:32;;;;;;;40.03;20.93;;;7.60;99.90;;;;;;5050689;28;20586;-76
2022/03/25 04:13:58;;;;;;;36.70;19.93;;;7.70;99.90;;;;;;5050887;28;20204;-76
2022/03/25 04:16:23;;;;;;;35.97;22.07;;;7.60;99.90;;;;;;5049306;28;20605;-76
2022/03/25 04:18:49;;;;;;;43.00;24.60;;;7.60;99.90;;;;;;5050021;28;20231;-76
2022/03/25 04:21:15;;;;;;;35.13;20.17;;;7.60;99.90;;;;;;5051057;28;20172;-76
2022/03/25 04:23:40;;;;;;;39.60;21.17;;;7.60;99.90;;;;;;5050560;28;20219;-76
2022/03/25 04:26:06;;;;;;;33.60;20.37;;;7.60;99.90;;;;;;5048886;28;20578;-76
2022/03/25 04:28:32;;;;;;;33.53;19.00;;;7.60;99.90;;;;;;5049542;28;20227;-76
2022/03/25 04:30:57;;;;;;;33.57;19.20;;;7.50;99.90;;;;;;5049507;28;20207;-76
2022/03/25 04:33:23;;;;;;;36.67;19.83;;;7.50;99.90;;;;;;5049519;28;20280;-75
2022/03/25 04:35:48;;;;;;;34.93;21.60;;;7.40;99.90;;;;;;5059459;28;20208;-76
2022/03/25 04:38:15;;;;;;;34.67;19.73;;;7.40;99.90;;;;;;5049831;28;20219;-76
2022/03/25 04:40:41;;;;;;;34.77;19.17;;;7.20;99.90;;;;;;5050446;28;20290;-76
2022/03/25 04:43:07;;;;;;;35.57;19.23;;;7.20;99.90;;;;;;5049279;28;20206;-76
2022/03/25 04:45:32;;;;;;;33.90;19.43;;;7.10;99.90;;;;;;5050442;28;20180;-76
2022/03/25 04:47:58;;;;;;;37.33;18.73;;;7.10;99.90;;;;;;5050440;28;20680;-75
2022/03/25 04:50:24;;;;;;;33.33;18.97;;;7.10;99.90;;;;;;5050279;28;20719;-76
2022/03/25 04:52:50;;;;;;;34.13;20.13;;;7.20;99.90;;;;;;5049189;28;20290;-76
2022/03/25 04:55:16;;;;;;;34.53;19.77;;;7.20;99.90;;;;;;5050487;28;20616;-77
2022/03/25 04:57:42;;;;;;;38.93;19.63;;;7.20;99.90;;;;;;5051012;28;20718;-76
2022/03/25 05:00:09;;;;;;;37.87;20.30;;;7.30;99.90;;;;;;5050706;28;20171;-76
2022/03/25 05:02:35;;;;;;;36.13;20.03;;;7.20;99.90;;;;;;5049077;28;20203;-76
2022/03/25 05:05:02;;;;;;;34.93;18.50;;;7.20;99.90;;;;;;5056437;28;20207;-77
2022/03/25 05:07:28;;;;;;;37.67;19.70;;;7.30;99.90;;;;;;5053510;28;20716;-76
2022/03/25 05:09:56;;;;;;;38.40;19.70;;;7.30;99.90;;;;;;5055542;28;20454;-76
2022/03/25 05:12:21;;;;;;;39.83;21.03;;;7.30;99.90;;;;;;5049568;28;20175;-76
2022/03/25 05:14:47;;;;;;;32.17;18.63;;;7.40;99.90;;;;;;5050230;28;20207;-77
2022/03/25 05:17:12;;;;;;;36.53;18.93;;;7.40;99.90;;;;;;5050087;28;20257;-76
2022/03/25 05:19:38;;;;;;;33.27;19.40;;;7.40;99.90;;;;;;5049470;28;20735;-75
2022/03/25 05:22:03;;;;;;;39.37;19.73;;;7.50;99.90;;;;;;5050487;28;20222;-76
2022/03/25 05:24:29;;;;;;;36.50;19.33;;;7.60;99.90;;;;;;5048883;28;20172;-76
2022/03/25 05:26:56;;;;;;;34.73;20.03;;;7.70;99.90;;;;;;5050859;28;20727;-76
2022/03/25 05:29:22;;;;;;;40.73;21.30;;;7.80;99.90;;;;;;5048253;28;20591;-77
2022/03/25 05:31:48;;;;;;;33.70;19.60;;;7.80;99.90;;;;;;5050496;28;20207;-77
2022/03/25 05:34:13;;;;;;;33.37;18.73;;;7.90;99.90;;;;;;5049673;28;20215;-77
2022/03/25 05:36:39;;;;;;;36.43;18.80;;;7.90;99.90;;;;;;5057858;28;20540;-76
2022/03/25 05:39:05;;;;;;;38.37;18.90;;;8.10;99.90;;;;;;5053615;28;20179;-77
2022/03/25 05:41:31;;;;;;;32.70;19.17;;;8.20;99.90;;;;;;5054296;28;20211;-76
2022/03/25 05:43:56;;;;;;;30.13;19.10;;;8.40;99.90;;;;;;5051002;28;20231;-76
2022/03/25 05:46:22;;;;;;;32.27;18.93;;;8.60;99.90;;;;;;5053430;28;20224;-76
2022/03/25 05:48:48;;;;;;;42.17;20.20;;;8.60;99.90;;;;;;5053053;28;20712;-76
2022/03/25 05:51:14;;;;;;;33.97;20.77;;;9.00;99.90;;;;;;5055924;28;20195;-77
2022/03/25 05:53:41;;;;;;;34.80;19.47;;;9.30;99.90;;;;;;5054861;28;20216;-76
2022/03/25 05:56:07;;;;;;;34.47;19.43;;;10.00;99.90;;;;;;5053161;28;20203;-76
2022/03/25 05:58:37;;;;;;;34.80;17.77;;;10.70;99.90;;;;;;5055030;28;20230;-77
2022/03/25 06:01:04;;;;;;;31.30;19.03;;;11.30;99.90;;;;;;5058172;28;20208;-77
2022/03/25 06:03:33;;;;;;;35.67;19.80;;;12.00;99.90;;;;;;5054230;28;20191;-77
2022/03/25 06:06:00;;;;;;;43.40;23.97;;;12.30;99.90;;;;;;5054509;28;20762;-76
2022/03/25 06:08:26;;;;;;;33.80;20.57;;;13.00;99.90;;;;;;5051774;28;20222;-77
2022/03/25 06:10:51;;;;;;;35.80;19.73;;;13.10;99.90;;;;;;5052893;28;20220;-77
2022/03/25 06:13:18;;;;;;;40.53;21.97;;;13.60;99.90;;;;;;5053865;28;20704;-77
2022/03/25 06:15:44;;;;;;;36.20;19.63;;;13.90;99.90;;;;;;5052735;28;20171;-77
2022/03/25 06:18:09;;;;;;;33.15;20.90;;;14.60;99.90;;;;;;5053060;28;20206;-77
2022/03/25 06:20:35;;;;;;;35.70;19.45;;;15.10;99.90;;;;;;5053917;28;20204;-77
2022/03/25 06:23:01;;;;;;;36.58;20.63;;;15.30;99.90;;;;;;5059390;28;20211;-77
2022/03/25 06:25:27;;;;;;;37.40;21.20;;;15.40;99.90;;;;;;5053502;28;20653;-75
2022/03/25 06:27:55;;;;;;;31.60;21.00;;;15.30;99.90;;;;;;5055780;28;20212;-77
2022/03/25 06:30:24;;;;;;;37.53;21.52;;;15.50;99.90;;;;;;5052856;28;20211;-74
2022/03/25 06:32:50;;;;;;;29.50;19.52;;;15.80;99.90;;;;;;5051738;28;20565;-75
2022/03/25 06:35:16;;;;;;;39.28;20.77;;;16.60;99.70;;;;;;5051326;28;20290;-76
2022/03/25 06:37:42;;;;;;;38.92;22.20;;;16.70;98.50;;;;;;5052455;28;20208;-79
2022/03/25 06:40:08;;;;;;;35.33;22.30;;;17.00;97.70;;;;;;5052490;28;20212;-77
2022/03/25 06:42:35;;;;;;;39.33;21.70;;;17.60;96.80;;;;;;5051169;28;20679;-76
2022/03/25 06:45:02;;;;;;;35.15;21.05;;;17.50;95.80;;;;;;5052117;28;20587;-77
2022/03/25 06:47:28;;;;;;;35.05;21.58;;;17.70;95.50;;;;;;5051738;28;20230;-77
2022/03/25 06:49:54;;;;;;;35.60;22.00;;;18.30;94.70;;;;;;5051755;28;20661;-78
2022/03/25 06:52:19;;;;;;;39.63;22.17;;;19.20;93.00;;;;;;5055639;28;20216;-78
2022/03/25 06:54:45;;;;;;;33.30;21.77;;;19.10;91.60;;;;;;5059196;28;20207;-78
2022/03/25 06:57:11;;;;;;;36.60;20.52;;;19.00;90.60;;;;;;5053926;28;20234;-77
2022/03/25 06:59:37;;;;;;;33.97;21.27;;;19.30;89.80;;;;;;5051638;28;20214;-77
2022/03/25 07:02:03;;;;;;;36.83;20.25;;;19.30;88.90;;;;;;5058548;28;20204;-78
2022/03/25 07:04:29;;;;;;;30.95;21.25;;;19.60;87.00;;;;;;5058315;28;20230;-77
2022/03/25 07:06:56;;;;;;;35.67;22.05;;;20.00;85.70;;;;;;5056316;28;20222;-78
2022/03/25 07:09:22;;;;;;;34.75;22.17;;;20.10;83.90;;;;;;5057844;28;20191;-78
2022/03/25 07:11:47;;;;;;;36.58;20.95;;;20.40;82.60;;;;;;5057496;28;20227;-78
2022/03/25 07:14:13;;;;;;;34.22;21.08;;;19.80;81.80;;;;;;5056935;28;20298;-77
2022/03/25 07:16:42;;;;;;;32.03;21.73;;;20.30;81.50;;;;;;5053940;28;20257;-77
2022/03/25 07:19:08;;;;;;;33.75;21.38;;;20.30;80.10;;;;;;5052167;28;20261;-77
2022/03/25 07:21:34;;;;;;;35.08;22.27;;;20.50;80.00;;;;;;5052295;28;20262;-77
2022/03/25 07:23:59;;;;;;;37.05;21.42;;;20.50;79.10;;;;;;5053701;28;20199;-77
2022/03/25 07:26:25;;;;;;;33.75;21.35;;;20.90;78.60;;;;;;5052598;28;20196;-77
2022/03/25 07:28:51;;;;;;;33.72;20.75;;;20.80;77.60;;;;;;5051459;28;20215;-78
2022/03/25 07:31:18;;;;;;;32.70;20.42;;;21.10;77.20;;;;;;5053314;28;20210;-78
2022/03/25 07:33:43;;;;;;;37.13;21.50;;;21.30;75.60;;;;;;5055594;28;20178;-78
2022/03/25 07:36:09;;;;;;;29.58;21.05;;;21.40;74.90;;;;;;5055499;28;20591;-78
2022/03/25 07:38:35;;;;;;;31.00;19.80;;;21.50;74.30;;;;;;5054113;28;20762;-78
2022/03/25 07:41:00;;;;;;;31.98;20.38;;;22.10;73.00;;;;;;5054522;28;20204;-78
2022/03/25 07:43:25;;;;;;;31.85;19.30;;;22.60;70.50;;;;;;5053316;28;20208;-78
2022/03/25 07:45:51;;;;;;;34.50;21.45;;;22.60;70.20;;;;;;5052374;28;20570;-77
2022/03/25 07:48:17;;;;;;;34.08;22.58;;;21.90;69.80;;;;;;5049701;28;20198;-76
2022/03/25 07:50:43;;;;;;;34.50;21.33;;;21.80;70.50;;;;;;5049878;28;20199;-77
2022/03/25 07:53:09;;;;;;;35.80;21.13;;;22.10;70.40;;;;;;5049967;28;20211;-76
2022/03/25 07:55:34;;;;;;;34.75;21.48;;;22.10;70.10;;;;;;5051082;28;20223;-76
2022/03/25 07:58:00;;;;;;;38.83;22.65;;;22.20;69.60;;;;;;5049130;28;20219;-76
2022/03/25 08:00:25;;;;;;;33.28;21.58;;;22.10;69.30;;;;;;5050387;28;20204;-77
2022/03/25 08:02:53;;;;;;;34.72;21.25;;;22.40;68.90;;;;;;5050559;28;20636;-77
2022/03/25 08:05:19;;;;;;;34.53;21.45;;;22.50;68.90;;;;;;5049777;28;20253;-77
2022/03/25 08:07:52;;;;;;;37.15;23.02;;;22.50;68.60;;;;;;5051823;28;20212;-77
2022/03/25 08:10:21;;;;;;;36.88;22.35;;;22.40;68.00;;;;;;5051449;28;20227;-76
2022/03/25 08:12:46;;;;;;;38.30;22.48;;;22.30;68.50;;;;;;5049796;28;20747;-76
2022/03/25 08:15:13;;;;;;;34.67;22.02;;;22.90;68.00;;;;;;5052703;28;20292;-75
2022/03/25 08:17:50;;;;;;;38.83;22.38;;;23.30;68.30;;;;;;5050378;28;20594;-76
2022/03/25 08:20:20;;;;;;;36.80;22.13;;;23.20;66.70;;;;;;5050186;28;20207;-76
2022/03/25 08:22:45;;;;;;;35.05;22.08;;;23.50;65.70;;;;;;5051731;28;20684;-74
2022/03/25 08:28:00;;;;;;;39.50;24.08;;;23.90;64.60;;;;;;5064933;28;20245;-72
2022/03/25 08:30:26;;;;;;;41.55;24.45;;;23.60;64.80;;;;;;5062485;28;20282;-73
2022/03/25 08:32:52;;;;;;;38.78;23.08;;;24.00;63.90;;;;;;5052097;28;20194;-73
2022/03/25 08:35:18;;;;;;;36.75;25.00;;;24.20;63.40;;;;;;5051373;28;20396;-73
2022/03/25 08:37:43;;;;;;;51.17;28.60;;;23.60;64.00;;;;;;5062433;28;20260;-75
2022/03/25 08:40:09;;;;;;;44.45;26.48;;;23.40;64.80;;;;;;5070924;28;20255;-72
2022/03/25 08:42:35;;;;;;;39.83;24.25;;;23.60;64.80;;;;;;5069296;28;20776;-73
2022/03/25 08:45:00;;;;;;;46.58;28.63;;;23.70;64.80;;;;;;5062448;28;20172;-71
2022/03/25 08:47:26;;;;;;;37.10;24.75;;;23.30;64.90;;;;;;5050508;28;20235;-71
2022/03/25 08:49:51;;;;;;;38.30;23.83;;;23.30;65.50;;;;;;5049535;28;20219;-72
2022/03/25 08:52:20;;;;;;;42.10;25.45;;;23.60;64.80;;;;;;5051141;28;20714;-70
2022/03/25 08:54:46;;;;;;;38.88;24.38;;;23.60;64.80;;;;;;5044178;28;20211;-73
2022/03/25 08:57:12;;;;;;;37.75;22.73;;;22.60;66.20;;;;;;5054490;28;20203;-74
2022/03/25 08:59:38;;;;;;;42.78;23.90;;;22.30;67.60;;;;;;5067161;28;20924;-74
2022/03/25 09:02:03;;;;;;;35.78;23.85;;;22.10;68.60;;;;;;5069428;28;20203;-75
2022/03/25 09:04:30;;;;;;;45.63;24.85;;;21.90;69.50;;;;;;5071097;28;20234;-77
2022/03/25 09:06:55;;;;;;;41.78;26.40;;;21.90;70.60;;;;;;5070409;28;20229;-75
2022/03/25 09:09:21;;;;;;;41.92;27.83;;;21.80;71.20;;;;;;5069446;28;20667;-74
2022/03/25 09:11:47;;;;;;;47.10;25.90;;;21.80;71.10;;;;;;5074206;28;20198;-75
2022/03/25 09:14:14;;;;;;;46.30;28.38;;;21.60;71.30;;;;;;5071634;28;20649;-75
2022/03/25 09:16:40;;;;;;;48.83;26.38;;;21.70;72.20;;;;;;5057123;28;20211;-75
2022/03/25 09:19:05;;;;;;;42.50;26.67;;;21.60;72.30;;;;;;5074442;28;20295;-73
2022/03/25 09:21:31;;;;;;;48.38;27.10;;;21.40;72.90;;;;;;5075276;28;20186;-73
2022/03/25 09:23:57;;;;;;;51.10;28.13;;;21.60;73.70;;;;;;5076937;28;20172;-75
2022/03/25 09:26:23;;;;;;;47.85;26.50;;;21.60;73.70;;;;;;5074869;28;20213;-73
2022/03/25 09:28:48;;;;;;;45.67;27.40;;;21.20;73.60;;;;;;5074570;28;20222;-75
2022/03/25 09:31:14;;;;;;;44.40;28.25;;;21.20;74.80;;;;;;5075173;28;20203;-77
2022/03/25 09:33:39;;;;;;;49.10;28.10;;;21.10;75.30;;;;;;5055664;28;20221;-75
2022/03/25 09:36:05;;;;;;;52.58;28.67;;;21.20;75.80;;;;;;5054728;28;20174;-74
2022/03/25 09:38:30;;;;;;;45.70;27.48;;;21.00;76.00;;;;;;5054974;28;20272;-77
2022/03/25 09:40:57;;;;;;;45.40;28.70;;;21.30;76.30;;;;;;5069182;28;20205;-75
2022/03/25 09:43:23;;;;;;;46.95;28.65;;;20.90;76.30;;;;;;5059820;28;20203;-76
2022/03/25 09:45:49;;;;;;;48.58;28.70;;;21.20;77.10;;;;;;5051077;28;20315;-76
2022/03/25 09:48:14;;;;;;;50.72;28.50;;;21.10;77.00;;;;;;5049301;28;20571;-76
2022/03/25 09:50:40;;;;;;;56.92;33.05;;;20.70;77.80;;;;;;5053351;28;20287;-76
2022/03/25 09:53:09;;;;;;;48.08;29.42;;;20.60;78.90;;;;;;5073727;28;20307;-76
2022/03/25 09:55:40;;;;;;;49.55;29.13;;;20.60;78.80;;;;;;5072497;28;20209;-75
2022/03/25 09:58:06;;;;;;;49.78;28.90;;;20.60;79.10;;;;;;5075545;28;20244;-75
2022/03/25 10:00:32;;;;;;;49.65;29.80;;;20.60;79.80;;;;;;5057870;28;20263;-74
2022/03/25 10:02:57;;;;;;;51.10;28.95;;;20.60;80.50;;;;;;5055987;28;20215;-74
2022/03/25 10:05:23;;;;;;;46.97;28.90;;;20.60;80.00;;;;;;5056648;28;20195;-74
2022/03/25 10:07:51;;;;;;;53.10;28.42;;;20.60;80.40;;;;;;5073899;28;20253;-74
2022/03/25 10:10:17;;;;;;;44.20;28.30;;;20.60;80.40;;;;;;5074307;28;20218;-74
2022/03/25 10:12:47;;;;;;;43.60;27.95;;;20.50;80.60;;;;;;5074738;28;20274;-74
2022/03/25 10:15:27;;;;;;;48.08;28.52;;;20.40;80.90;;;;;;5068330;28;20191;-75
2022/03/25 10:18:04;;;;;;;48.35;29.25;;;20.60;81.20;;;;;;5060877;28;20221;-72
2022/03/25 10:20:35;;;;;;;48.50;28.98;;;20.30;82.30;;;;;;5073556;28;20226;-73
2022/03/25 10:23:08;;;;;;;46.28;28.65;;;20.20;81.90;;;;;;5072111;28;20710;-74
2022/03/25 10:26:00;;;;;;;52.75;30.75;;;20.30;82.20;;;;;;5074371;28;20286;-73
2022/03/25 10:28:30;;;;;;;51.08;32.03;;;20.30;82.80;;;;;;5069163;28;20222;-74
2022/03/25 10:31:07;;;;;;;59.15;32.00;;;20.30;82.90;;;;;;5073107;28;20690;-72
2022/03/25 10:33:35;;;;;;;52.85;29.40;;;20.40;83.40;;;;;;5073278;28;20261;-73
2022/03/25 10:36:02;;;;;;;50.53;30.75;;;20.60;83.70;;;;;;5073980;28;20798;-73
2022/03/25 10:38:41;;;;;;;50.85;30.13;;;20.50;84.00;;;;;;5073408;28;20321;-76
2022/03/25 10:41:07;;;;;;;53.28;30.98;;;20.60;83.40;;;;;;5073604;28;20202;-76
2022/03/25 10:43:33;;;;;;;44.65;28.88;;;20.00;84.60;;;;;;5072577;28;20211;-76
2022/03/25 10:45:59;;;;;;;49.53;30.42;;;20.00;86.80;;;;;;5053342;28;20699;-74
2022/03/25 10:48:24;;;;;;;46.83;29.20;;;19.90;84.80;;;;;;5054051;28;20386;-75
2022/03/25 10:51:10;;;;;;;45.28;28.08;;;19.90;85.60;;;;;;5063731;28;20571;-77
2022/03/25 10:53:37;;;;;;;46.67;26.92;;;20.00;85.40;;;;;;5070250;28;20210;-75
2022/03/25 10:56:08;;;;;;;41.80;26.45;;;19.70;85.40;;;;;;5051433;28;20201;-73
2022/03/25 10:58:34;;;;;;;46.50;25.42;;;19.30;86.20;;;;;;5073796;28;20237;-77
2022/03/25 11:01:01;;;;;;;46.85;27.23;;;19.50;86.50;;;;;;5075630;28;20557;-78
2022/03/25 11:03:28;;;;;;;43.58;26.35;;;19.30;86.40;;;;;;5072524;28;20206;-79
2022/03/25 11:05:54;;;;;;;41.80;26.20;;;19.60;86.40;;;;;;5072185;28;20176;-79
2022/03/25 11:08:21;;;;;;;45.42;24.88;;;20.00;86.70;;;;;;5071976;28;20215;-78
2022/03/25 11:10:47;;;;;;;42.33;24.85;;;19.90;85.40;;;;;;5067149;28;20241;-76
2022/03/25 11:13:12;;;;;;;45.38;26.65;;;19.70;85.40;;;;;;5069163;28;20219;-77
2022/03/25 11:15:46;;;;;;;41.78;26.20;;;19.80;85.70;;;;;;5086513;28;20182;-80
2022/03/25 11:18:17;;;;;;;46.92;26.55;;;19.80;85.70;;;;;;5091582;28;20206;-84
2022/03/25 11:20:44;;;;;;;42.60;24.63;;;19.70;85.50;;;;;;5087872;28;20207;-80
2022/03/25 11:23:19;;;;;;;41.47;26.50;;;19.80;87.50;;;;;;5071920;28;20214;-81
2022/03/25 11:25:51;;;;;;;42.55;24.33;;;20.20;86.80;;;;;;5062652;28;20233;-82
2022/03/25 11:28:20;;;;;;;44.30;25.45;;;20.10;86.50;;;;;;5066617;28;20227;-79
2022/03/25 11:30:57;;;;;;;42.38;22.38;;;20.20;86.70;;;;;;5055032;28;20223;-78
2022/03/25 11:33:22;;;;;;;41.00;21.90;;;20.50;86.80;;;;;;5063306;28;20262;-81
2022/03/25 11:36:08;;;;;;;34.85;20.27;;;20.40;85.60;;;;;;5074773;28;20230;-78
2022/03/25 11:38:33;;;;;;;36.13;20.42;;;20.10;85.70;;;;;;5056683;28;20214;-77
2022/03/25 11:41:20;;;;;;;38.38;20.98;;;19.60;88.80;;;;;;5061646;28;20208;-81
2022/03/25 11:44:05;;;;;;;39.70;23.02;;;19.80;88.30;;;;;;5072902;28;20234;-79
2022/03/25 11:46:31;;;;;;;36.10;20.30;;;20.00;88.30;;;;;;5075993;28;20213;-81
2022/03/25 11:49:17;;;;;;;35.88;19.92;;;20.00;87.00;;;;;;5064708;28;20223;-80
2022/03/25 11:51:43;;;;;;;36.38;20.00;;;19.90;87.70;;;;;;5056496;28;20261;-81
2022/03/25 11:54:37;;;;;;;37.97;20.80;;;19.80;87.40;;;;;;5063384;28;20599;-80
2022/03/25 11:57:20;;;;;;;27.45;17.45;;;19.80;87.70;;;;;;5071093;28;20271;-75
2022/03/25 11:59:53;;;;;;;30.15;17.08;;;19.90;88.40;;;;;;5055109;28;20696;-78
2022/03/25 12:02:22;;;;;;;29.50;16.40;;;19.90;88.10;;;;;;5061620;28;20211;-74
2022/03/25 12:04:48;;;;;;;24.30;15.68;;;19.80;87.90;;;;;;5072293;28;20207;-74
2022/03/25 12:07:16;;;;;;;27.98;16.30;;;20.00;89.10;;;;;;5070015;28;20229;-74
2022/03/25 12:09:45;;;;;;;27.63;16.52;;;20.30;89.00;;;;;;5068822;28;20195;-81
2022/03/25 12:12:11;;;;;;;32.30;19.45;;;20.20;88.00;;;;;;5064783;28;20175;-80
2022/03/25 12:15:07;;;;;;;32.15;17.23;;;19.90;87.60;;;;;;5069916;28;20229;-82
2022/03/25 12:17:33;;;;;;;29.88;16.55;;;20.00;88.00;;;;;;5069874;28;20295;-80
2022/03/25 12:20:01;;;;;;;24.73;15.43;;;20.00;87.80;;;;;;5057593;28;20275;-75
2022/03/25 12:22:29;;;;;;;28.58;16.10;;;19.90;87.90;;;;;;5076078;28;20207;-74
2022/03/25 12:24:57;;;;;;;28.95;15.63;;;19.80;88.30;;;;;;5079513;28;20290;-75
2022/03/25 12:27:24;;;;;;;27.10;15.50;;;19.80;86.50;;;;;;5070798;28;20210;-75
2022/03/25 12:29:51;;;;;;;26.60;15.38;;;19.60;87.30;;;;;;5047918;28;20211;-75
2022/03/25 12:32:19;;;;;;;27.73;13.23;;;19.50;88.40;;;;;;5055315;28;20208;-75